Time;durP1;ratioP1;P1;durP2;ratioP2;P2;SDS_P1;SDS_P2;PMS_P1;PMS_P2;Temp;Humidity;BMP_temperature;BMP_pressure;BME280_temperature;BME280_humidity;BME280_pressure;Samples;Min_cycle;Max_cycle;Signal;HPM_P1;HPM_P2
2022/08/02 00:02:18;;;;;;;2.55;2.35;;;;;;;13.17;98.25;101904.31;4992968;28;20033;-75
2022/08/02 00:04:45;;;;;;;6.75;2.47;;;;;;;13.13;98.12;101918.63;5024875;28;20029;-74
2022/08/02 00:07:11;;;;;;;3.65;2.55;;;;;;;13.11;98.38;101904.53;5022864;28;20052;-75
2022/08/02 00:09:36;;;;;;;3.67;2.22;;;;;;;13.10;98.37;101910.78;5024682;28;20041;-73
2022/08/02 00:12:03;;;;;;;3.75;2.10;;;;;;;13.07;98.59;101912.72;5024446;28;20056;-75
2022/08/02 00:14:28;;;;;;;3.75;2.30;;;;;;;13.03;98.66;101910.16;5002976;28;20143;-74
2022/08/02 00:16:54;;;;;;;3.75;2.03;;;;;;;13.01;98.98;101903.16;4997426;28;20226;-74
2022/08/02 00:19:19;;;;;;;2.83;2.00;;;;;;;12.96;98.94;101908.66;5001716;28;20732;-73
2022/08/02 00:21:45;;;;;;;2.58;2.38;;;;;;;12.93;99.28;101910.56;5002892;28;20496;-73
2022/08/02 00:24:10;;;;;;;3.33;2.10;;;;;;;12.88;99.02;101898.34;5000191;28;20076;-74
2022/08/02 00:26:38;;;;;;;6.43;2.15;;;;;;;12.85;99.27;101893.13;5001931;28;20042;-74
2022/08/02 00:29:04;;;;;;;2.65;1.88;;;;;;;12.86;99.57;101896.66;4978256;28;20025;-73
2022/08/02 00:31:29;;;;;;;3.72;2.38;;;;;;;12.86;99.81;101894.00;5001032;28;20030;-74
2022/08/02 00:33:55;;;;;;;2.15;1.95;;;;;;;12.84;99.80;101891.41;4969127;28;20040;-74
2022/08/02 00:36:20;;;;;;;3.83;1.95;;;;;;;12.82;99.76;101887.94;5005537;28;20030;-73
2022/08/02 00:38:47;;;;;;;5.43;2.28;;;;;;;12.81;100.00;101888.00;5007476;28;20172;-73
2022/08/02 00:41:15;;;;;;;5.20;2.20;;;;;;;12.78;100.00;101883.66;4993775;28;20117;-73
2022/08/02 00:43:42;;;;;;;5.18;2.20;;;;;;;12.74;100.00;101874.06;5006025;28;20055;-73
2022/08/02 00:46:10;;;;;;;4.05;2.33;;;;;;;12.70;100.00;101878.63;5004193;28;20030;-73
2022/08/02 00:48:35;;;;;;;2.60;2.17;;;;;;;12.67;100.00;101883.19;4984902;28;20088;-74
2022/08/02 00:51:01;;;;;;;3.72;2.63;;;;;;;12.65;100.00;101872.66;5009179;28;20062;-74
2022/08/02 00:53:26;;;;;;;4.80;2.58;;;;;;;12.61;100.00;101874.56;4981480;28;20095;-74
2022/08/02 00:55:52;;;;;;;5.03;2.20;;;;;;;12.60;100.00;101867.47;5005818;28;20350;-74
2022/08/02 00:58:17;;;;;;;3.40;2.15;;;;;;;12.60;100.00;101864.81;4991385;28;20361;-74
2022/08/02 01:00:43;;;;;;;4.88;2.53;;;;;;;12.59;100.00;101865.75;4981206;28;20120;-74
2022/08/02 01:03:08;;;;;;;5.78;2.65;;;;;;;12.58;100.00;101863.19;5004100;28;20033;-74
2022/08/02 01:05:34;;;;;;;5.25;2.65;;;;;;;12.56;100.00;101857.91;5006145;28;20136;-74
2022/08/02 01:08:01;;;;;;;5.45;3.00;;;;;;;12.55;100.00;101858.84;5005182;28;20068;-75
2022/08/02 01:10:26;;;;;;;3.13;2.40;;;;;;;12.53;100.00;101860.66;4967102;28;20087;-74
2022/08/02 01:12:52;;;;;;;5.45;2.47;;;;;;;12.50;100.00;101856.34;5013025;28;20054;-75
2022/08/02 01:15:18;;;;;;;5.57;2.53;;;;;;;12.49;100.00;101854.59;5025593;28;20053;-75
2022/08/02 01:17:56;;;;;;;5.05;2.08;;;;;;;12.46;100.00;101856.50;5025307;28;20128;-74
2022/08/02 01:20:59;;;;;;;3.92;2.45;;;;;;;12.42;100.00;101857.56;5024579;28;20388;-75
2022/08/02 01:23:38;;;;;;;3.83;2.80;;;;;;;12.40;100.00;101844.34;5027168;28;20238;-73
2022/08/02 01:26:38;;;;;;;3.55;2.42;;;;;;;12.39;100.00;101844.38;5026817;28;20056;-73
2022/08/02 01:29:12;;;;;;;3.65;2.05;;;;;;;12.35;100.00;101833.91;5025863;28;20049;-74
2022/08/02 01:31:58;;;;;;;4.13;2.53;;;;;;;12.35;100.00;101841.88;5024685;28;20037;-73
2022/08/02 01:34:33;;;;;;;4.22;2.58;;;;;;;12.35;100.00;101841.88;5024538;28;20053;-74
2022/08/02 01:37:10;;;;;;;4.15;2.75;;;;;;;12.36;100.00;101840.94;5028417;28;20033;-73
2022/08/02 01:39:40;;;;;;;5.50;2.58;;;;;;;12.33;100.00;101835.72;5008286;28;20021;-73
2022/08/02 01:42:09;;;;;;;3.90;2.70;;;;;;;12.32;100.00;101838.47;5022238;28;20062;-73
2022/08/02 01:44:37;;;;;;;5.60;2.80;;;;;;;12.30;100.00;101842.94;5023096;28;20033;-74
2022/08/02 01:47:06;;;;;;;3.95;2.30;;;;;;;12.29;100.00;101835.91;5012055;28;20033;-74
2022/08/02 01:49:33;;;;;;;2.95;2.38;;;;;;;12.28;100.00;101840.38;5010075;28;20162;-73
2022/08/02 01:54:46;;;;;;;5.85;2.42;;;;;;;12.27;100.00;101838.63;5010088;28;20130;-74
2022/08/02 01:57:12;;;;;;;5.10;2.47;;;;;;;12.27;100.00;101835.97;5024057;28;20132;-73
2022/08/02 01:59:39;;;;;;;4.75;2.47;;;;;;;12.26;100.00;101830.72;5021459;28;20153;-73
2022/08/02 02:02:06;;;;;;;3.33;2.40;;;;;;;12.26;100.00;101823.59;5010768;28;20045;-74
2022/08/02 02:04:34;;;;;;;8.10;2.65;;;;;;;12.26;100.00;101831.56;5011348;28;20893;-74
2022/08/02 02:07:05;;;;;;;2.17;1.98;;;;;;;12.27;100.00;101830.66;5007809;28;20301;-76
2022/08/02 02:09:36;;;;;;;5.15;2.42;;;;;;;12.26;100.00;101828.91;5025803;28;20431;-74
2022/08/02 02:12:02;;;;;;;4.55;2.15;;;;;;;12.27;100.00;101819.16;5022547;28;20033;-73
2022/08/02 02:14:29;;;;;;;3.60;1.85;;;;;;;12.25;100.00;101813.06;5022101;28;20095;-74
2022/08/02 02:16:59;;;;;;;4.38;2.30;;;;;;;12.24;100.00;101806.88;5024308;28;20041;-75
2022/08/02 02:19:25;;;;;;;4.70;2.30;;;;;;;12.23;100.00;101799.84;5006421;28;20072;-74
2022/08/02 02:21:51;;;;;;;5.68;2.10;;;;;;;12.20;100.00;101797.31;5009259;28;20044;-74
2022/08/02 02:24:16;;;;;;;6.20;2.38;;;;;;;12.21;100.00;101807.00;5022443;28;20033;-74
2022/08/02 02:26:43;;;;;;;3.42;2.40;;;;;;;12.20;100.00;101808.78;5026247;28;20571;-75
2022/08/02 02:29:09;;;;;;;2.97;1.90;;;;;;;12.20;100.00;101795.50;5023097;28;20041;-76
2022/08/02 02:31:38;;;;;;;6.40;2.63;;;;;;;12.21;100.00;101801.69;5006035;28;20037;-74
2022/08/02 02:34:09;;;;;;;3.20;2.05;;;;;;;12.21;100.00;101807.00;5023158;28;20035;-74
2022/08/02 02:36:38;;;;;;;3.70;2.00;;;;;;;12.21;100.00;101802.53;5023330;28;20028;-73
2022/08/02 02:39:05;;;;;;;4.95;2.95;;;;;;;12.21;100.00;101796.38;5023628;28;20049;-74
2022/08/02 02:41:31;;;;;;;5.40;2.50;;;;;;;12.19;100.00;101793.78;5023494;28;20064;-73
2022/08/02 02:43:59;;;;;;;3.78;2.10;;;;;;;12.19;100.00;101792.88;5006218;28;20148;-73
2022/08/02 02:46:29;;;;;;;3.20;2.10;;;;;;;12.17;100.00;101792.09;5029233;28;20033;-74
2022/08/02 02:48:55;;;;;;;4.90;2.38;;;;;;;12.15;100.00;101791.28;5021952;28;20400;-74
2022/08/02 02:51:21;;;;;;;2.58;1.98;;;;;;;12.14;100.00;101786.91;5024079;28;20036;-73
2022/08/02 02:53:50;;;;;;;3.75;2.40;;;;;;;12.11;100.00;101790.53;4993309;28;20044;-74
2022/08/02 02:56:16;;;;;;;5.60;2.42;;;;;;;12.08;100.00;101788.88;5025285;28;20571;-73
2022/08/02 02:58:43;;;;;;;4.28;2.40;;;;;;;12.06;100.00;101788.06;5022042;28;20025;-74
2022/08/02 03:01:27;;;;;;;6.30;2.70;;;;;;;12.05;100.00;101782.81;5039983;28;20040;-74
2022/08/02 03:03:53;;;;;;;6.35;2.25;;;;;;;12.04;100.00;101784.56;5020741;28;20044;-74
2022/08/02 03:06:19;;;;;;;6.97;2.75;;;;;;;12.03;100.00;101782.84;5023233;28;20039;-74
2022/08/02 03:08:45;;;;;;;3.75;2.50;;;;;;;12.02;100.00;101773.13;5022440;28;20037;-74
2022/08/02 03:11:11;;;;;;;5.57;2.40;;;;;;;12.00;100.00;101771.44;5022669;28;20159;-74
2022/08/02 03:13:37;;;;;;;3.85;2.30;;;;;;;11.98;100.00;101774.16;5017993;28;20195;-74
2022/08/02 03:16:03;;;;;;;5.20;2.42;;;;;;;11.97;100.00;101766.28;5022571;28;20038;-73
2022/08/02 03:18:39;;;;;;;7.40;2.53;;;;;;;11.98;100.00;101760.03;5022897;28;20040;-73
2022/08/02 03:21:08;;;;;;;5.57;2.25;;;;;;;11.99;100.00;101765.25;5004415;28;20031;-73
2022/08/02 03:23:34;;;;;;;3.20;2.00;;;;;;;11.98;100.00;101763.53;5022281;28;20395;-73
2022/08/02 03:26:00;;;;;;;6.90;2.60;;;;;;;11.97;100.00;101761.81;5005651;28;20034;-74
2022/08/02 03:28:26;;;;;;;4.03;2.30;;;;;;;11.97;100.00;101760.97;5023648;28;20078;-74
2022/08/02 03:30:52;;;;;;;6.03;2.55;;;;;;;11.98;100.00;101760.03;5009441;28;20434;-73
2022/08/02 03:33:18;;;;;;;5.13;2.38;;;;;;;11.96;100.00;101757.44;5002646;28;20122;-73
2022/08/02 03:35:46;;;;;;;6.65;2.55;;;;;;;11.96;100.00;101757.44;5010670;28;21413;-73
2022/08/02 03:38:12;;;;;;;5.00;2.25;;;;;;;11.95;100.00;101756.53;5021846;28;20120;-73
2022/08/02 03:40:40;;;;;;;3.53;2.10;;;;;;;11.96;100.00;101752.13;5021679;28;20037;-73
2022/08/02 03:43:07;;;;;;;3.65;2.17;;;;;;;11.96;100.00;101754.78;5019572;28;20092;-73
2022/08/02 03:45:36;;;;;;;3.58;2.03;;;;;;;11.97;100.00;101750.34;5025334;28;20037;-74
2022/08/02 03:48:03;;;;;;;3.80;2.60;;;;;;;11.98;100.00;101752.06;5021516;28;20612;-74
2022/08/02 03:50:28;;;;;;;5.38;2.65;;;;;;;11.96;100.00;101746.81;5022127;28;20037;-74
2022/08/02 03:52:54;;;;;;;5.75;2.20;;;;;;;11.95;100.00;101735.31;5022860;28;20598;-74
2022/08/02 03:55:20;;;;;;;5.40;2.60;;;;;;;11.95;100.00;101737.13;5003335;28;20495;-74
2022/08/02 03:57:45;;;;;;;4.90;2.50;;;;;;;11.94;100.00;101727.44;5022810;28;20041;-74
2022/08/02 04:00:17;;;;;;;5.35;2.65;;;;;;;11.95;100.00;101723.84;5019870;28;20094;-74
2022/08/02 04:02:48;;;;;;;4.07;2.58;;;;;;;11.96;100.00;101728.25;5021561;28;20668;-74
2022/08/02 04:05:15;;;;;;;3.97;2.70;;;;;;;11.97;100.00;101735.28;5018062;28;20643;-74
2022/08/02 04:07:42;;;;;;;4.22;2.53;;;;;;;11.98;100.00;101733.50;5022809;28;20468;-74
2022/08/02 04:10:08;;;;;;;6.35;2.60;;;;;;;11.99;100.00;101737.88;5021238;28;20025;-74
2022/08/02 04:12:34;;;;;;;4.55;2.90;;;;;;;12.02;100.00;101740.41;5020062;28;20502;-74
2022/08/02 04:15:01;;;;;;;4.45;2.25;;;;;;;12.03;100.00;101739.47;5006215;28;20042;-73
2022/08/02 04:17:30;;;;;;;4.05;2.55;;;;;;;12.04;100.00;101730.66;5036721;28;20041;-74
2022/08/02 04:20:20;;;;;;;4.75;2.63;;;;;;;12.06;100.00;101727.03;5036295;28;20634;-74
2022/08/02 04:22:57;;;;;;;6.05;2.92;;;;;;;12.12;100.00;101730.34;5023347;28;20048;-73
2022/08/02 04:25:24;;;;;;;6.07;2.70;;;;;;;12.15;100.00;101727.59;4996149;28;20083;-74
2022/08/02 04:27:50;;;;;;;5.90;2.65;;;;;;;12.18;100.00;101719.50;5003893;28;20028;-73
2022/08/02 04:30:16;;;;;;;3.20;2.80;;;;;;;12.23;100.00;101720.19;5020034;28;20395;-74
2022/08/02 04:32:43;;;;;;;7.10;2.90;;;;;;;12.25;100.00;101701.56;5005817;28;20029;-74
2022/08/02 04:35:09;;;;;;;4.30;2.83;;;;;;;12.29;100.00;101705.78;4998127;28;20136;-72
2022/08/02 04:37:36;;;;;;;5.40;2.60;;;;;;;12.31;100.00;101703.97;5023362;28;20392;-73
2022/08/02 04:40:05;;;;;;;5.60;2.95;;;;;;;12.33;100.00;101699.47;5020672;28;20097;-73
2022/08/02 04:42:31;;;;;;;6.15;2.83;;;;;;;12.34;100.00;101710.03;5021823;28;20115;-73
2022/08/02 04:44:57;;;;;;;5.38;2.65;;;;;;;12.38;100.00;101720.50;5024107;28;20444;-73
2022/08/02 04:47:22;;;;;;;5.32;2.60;;;;;;;12.39;100.00;101714.28;5009856;28;20028;-74
2022/08/02 04:49:48;;;;;;;5.90;2.55;;;;;;;12.45;100.00;101727.31;5023415;28;21497;-73
2022/08/02 04:52:17;;;;;;;4.40;2.70;;;;;;;12.49;100.00;101726.28;5020046;28;20041;-74
2022/08/02 04:54:42;;;;;;;5.10;2.38;;;;;;;12.55;100.00;101726.03;5004332;28;20041;-74
2022/08/02 04:59:52;;;;;;;3.08;2.28;;;;;;;12.66;100.00;101720.28;5020407;28;20060;-74
2022/08/02 05:02:17;;;;;;;5.65;2.78;;;;;;;12.71;100.00;101723.63;5022058;28;20033;-74
2022/08/02 05:04:43;;;;;;;4.93;2.22;;;;;;;12.73;100.00;101721.78;5023363;28;20529;-74
2022/08/02 05:07:08;;;;;;;3.40;2.67;;;;;;;12.77;100.00;101726.00;5023969;28;20040;-73
2022/08/02 05:09:34;;;;;;;3.20;2.40;;;;;;;12.83;100.00;101724.91;5024398;28;20048;-74
2022/08/02 05:11:59;;;;;;;4.05;2.58;;;;;;;12.87;100.00;101728.31;5023063;28;20491;-74
2022/08/02 05:14:25;;;;;;;4.00;2.30;;;;;;;12.91;100.00;101719.28;5020894;28;20053;-74
2022/08/02 05:16:50;;;;;;;4.10;2.72;;;;;;;12.95;100.00;101720.00;5019643;28;20774;-74
2022/08/02 05:19:16;;;;;;;2.92;2.50;;;;;;;12.97;100.00;101704.88;5024069;28;20029;-75
2022/08/02 05:21:41;;;;;;;4.05;2.67;;;;;;;12.99;100.00;101703.00;5026725;28;20044;-74
2022/08/02 05:24:07;;;;;;;3.53;2.40;;;;;;;13.05;100.00;101708.06;5026354;28;20068;-74
2022/08/02 05:26:32;;;;;;;5.43;2.78;;;;;;;13.09;100.00;101720.31;5026778;28;20072;-76
2022/08/02 05:28:58;;;;;;;3.47;2.70;;;;;;;13.16;100.00;101727.09;5014313;28;20479;-74
2022/08/02 05:31:23;;;;;;;3.95;2.70;;;;;;;13.25;100.00;101730.28;5027786;28;20072;-75
2022/08/02 05:33:49;;;;;;;3.22;2.67;;;;;;;13.33;100.00;101729.97;5025581;28;20033;-74
2022/08/02 05:36:15;;;;;;;4.97;3.22;;;;;;;13.43;100.00;101724.19;5012914;28;20025;-74
2022/08/02 05:38:40;;;;;;;5.22;3.15;;;;;;;13.56;100.00;101713.03;5037003;28;20398;-74
2022/08/02 05:41:06;;;;;;;6.43;3.00;;;;;;;13.69;100.00;101719.53;5023949;28;20514;-73
2022/08/02 05:43:32;;;;;;;4.35;2.78;;;;;;;13.85;100.00;101710.88;5026686;28;20032;-73
2022/08/02 05:45:57;;;;;;;4.43;2.88;;;;;;;13.98;100.00;101706.72;5024761;28;20096;-79
2022/08/02 05:48:23;;;;;;;4.60;2.80;;;;;;;14.15;100.00;101697.06;5025174;28;20025;-79
2022/08/02 05:50:54;;;;;;;6.05;2.80;;;;;;;14.29;100.00;101701.75;5024866;28;20732;-77
2022/08/02 05:53:22;;;;;;;3.15;2.50;;;;;;;14.42;100.00;101699.34;5026389;28;20750;-74
2022/08/02 05:56:08;;;;;;;4.47;2.85;;;;;;;14.56;100.00;101700.47;5026254;28;20033;-73
2022/08/02 05:58:40;;;;;;;3.08;2.45;;;;;;;14.69;100.00;101701.59;5026543;28;20029;-75
2022/08/02 06:01:10;;;;;;;3.33;2.70;;;;;;;14.84;100.00;101710.69;5026073;28;20604;-75
2022/08/02 06:03:38;;;;;;;3.35;2.53;;;;;;;15.00;100.00;101712.56;5026789;28;20107;-74
2022/08/02 06:06:10;;;;;;;8.55;2.83;;;;;;;15.14;100.00;101714.56;5027397;28;20037;-76
2022/08/02 06:08:43;;;;;;;6.68;2.67;;;;;;;15.24;100.00;101714.94;5027088;28;20025;-76
2022/08/02 06:11:12;;;;;;;;;;;;;;;15.30;100.00;101704.81;5029024;28;20072;-72
2022/08/02 06:13:40;;;;;;;5.40;2.47;;;;;;;15.37;100.00;101704.50;5027351;28;20371;-74
2022/08/02 06:16:06;;;;;;;7.20;2.78;;;;;;;15.44;100.00;101700.56;5025703;28;20043;-73
2022/08/02 06:18:32;;;;;;;4.38;2.35;;;;;;;15.51;100.00;101696.63;5026004;28;20554;-74
2022/08/02 06:21:02;;;;;;;3.20;2.20;;;;;;;15.57;100.00;101698.09;5025678;28;20033;-71
2022/08/02 06:23:28;;;;;;;3.47;2.20;;;;;;;15.64;100.00;101693.31;5023332;28;20112;-78
2022/08/02 06:25:56;;;;;;;5.90;1.83;;;;;;;15.73;100.00;101690.13;5013016;28;20032;-76
2022/08/02 06:28:22;;;;;;;3.30;1.90;;;;;;;15.83;100.00;101699.38;5026381;28;20034;-74
2022/08/02 06:30:48;;;;;;;3.00;1.98;;;;;;;15.95;100.00;101705.03;5021879;28;20039;-74
2022/08/02 06:33:14;;;;;;;3.65;2.05;;;;;;;16.10;100.00;101698.84;5026914;28;20029;-73
2022/08/02 06:36:17;;;;;;;3.70;1.73;;;;;;;16.26;99.03;101695.31;5023896;28;20369;-72
2022/08/02 06:38:51;;;;;;;3.00;1.90;;;;;;;16.45;98.53;101691.59;5026573;28;20037;-74
2022/08/02 06:41:17;;;;;;;2.50;1.80;;;;;;;16.62;98.05;101685.28;5007525;28;20105;-74
2022/08/02 06:43:51;;;;;;;3.55;1.80;;;;;;;16.75;97.13;101674.72;5012846;28;20531;-74
2022/08/02 06:46:17;;;;;;;2.95;1.60;;;;;;;16.91;96.56;101678.25;5023296;28;20040;-73
2022/08/02 06:48:43;;;;;;;2.38;1.70;;;;;;;17.10;96.48;101674.47;5023610;28;20111;-73
2022/08/02 06:51:08;;;;;;;3.65;1.40;;;;;;;17.26;94.94;101678.94;5025383;28;20426;-73
2022/08/02 06:53:34;;;;;;;1.92;1.77;;;;;;;17.31;94.05;101672.31;5027048;28;20144;-73
2022/08/02 06:55:59;;;;;;;2.25;1.42;;;;;;;17.32;93.05;101673.19;5024473;28;20041;-75
2022/08/02 06:58:25;;;;;;;1.67;1.48;;;;;;;17.33;93.13;101666.91;5025819;28;20037;-76
2022/08/02 07:00:50;;;;;;;2.75;1.52;;;;;;;17.34;92.65;101663.25;5023537;28;20361;-75
2022/08/02 07:03:16;;;;;;;2.33;1.40;;;;;;;17.45;92.56;101662.59;5024061;28;20224;-71
2022/08/02 07:05:47;;;;;;;1.75;1.42;;;;;;;17.59;92.70;101665.28;5022911;28;20036;-72
2022/08/02 07:08:14;;;;;;;3.67;1.50;;;;;;;17.76;92.14;101664.22;5023993;28;20037;-72
2022/08/02 07:10:39;;;;;;;2.65;1.60;;;;;;;17.95;91.44;101660.38;5025834;28;20025;-72
2022/08/02 07:13:05;;;;;;;3.15;1.60;;;;;;;18.13;90.06;101654.81;5021831;28;20151;-73
2022/08/02 07:15:31;;;;;;;3.22;1.50;;;;;;;18.27;89.93;101645.88;5023993;28;20060;-72
2022/08/02 07:17:57;;;;;;;3.83;1.65;;;;;;;18.45;89.42;101643.78;5025115;28;20125;-73
2022/08/02 07:20:22;;;;;;;3.05;1.50;;;;;;;18.64;88.75;101642.56;5026020;28;20035;-73
2022/08/02 07:22:48;;;;;;;3.50;1.33;;;;;;;18.75;87.17;101640.03;5020741;28;20033;-72
2022/08/02 07:25:14;;;;;;;1.42;1.33;;;;;;;18.86;86.65;101637.47;5034249;28;20037;-75
2022/08/02 07:27:39;;;;;;;1.90;1.33;;;;;;;19.02;86.07;101624.81;5022591;28;20036;-73
2022/08/02 07:30:06;;;;;;;2.25;1.55;;;;;;;19.21;86.05;101619.06;5022645;28;20384;-73
2022/08/02 07:32:31;;;;;;;1.83;1.50;;;;;;;19.40;85.29;101622.16;5021666;28;20033;-73
2022/08/02 07:34:59;;;;;;;1.77;1.23;;;;;;;19.66;84.89;101618.56;5024674;28;20036;-73
2022/08/02 07:37:27;;;;;;;2.20;1.50;;;;;;;19.87;84.02;101618.03;5024996;28;20061;-74
2022/08/02 07:39:53;;;;;;;3.25;1.38;;;;;;;20.03;83.19;101615.94;5025004;28;20176;-74
2022/08/02 07:42:18;;;;;;;2.30;1.40;;;;;;;20.21;82.43;101619.09;5024154;28;20481;-74
2022/08/02 07:44:44;;;;;;;3.75;1.67;;;;;;;20.30;81.33;101622.94;5022117;28;20033;-72
2022/08/02 07:47:10;;;;;;;2.47;1.40;;;;;;;20.40;81.29;101623.09;5021519;28;20037;-73
2022/08/02 07:49:38;;;;;;;1.77;1.30;;;;;;;20.45;79.90;101623.63;5003983;28;20079;-73
2022/08/02 07:52:03;;;;;;;1.38;1.27;;;;;;;20.46;79.87;101622.63;5025217;28;20029;-74
2022/08/02 07:54:29;;;;;;;3.00;1.48;;;;;;;20.52;79.43;101631.22;5024472;28;20916;-74
2022/08/02 07:56:55;;;;;;;1.77;1.40;;;;;;;20.58;79.80;101625.34;5021321;28;20504;-74
2022/08/02 07:59:21;;;;;;;1.48;1.38;;;;;;;20.58;78.84;101619.97;5025254;28;20041;-73
2022/08/02 08:01:48;;;;;;;1.67;1.58;;;;;;;20.56;79.46;101620.09;5022422;28;20041;-74
2022/08/02 08:04:17;;;;;;;2.97;1.40;;;;;;;20.58;79.18;101609.22;5023205;28;20025;-75
2022/08/02 08:06:43;;;;;;;3.05;1.60;;;;;;;20.71;79.51;101614.53;5008057;28;20029;-73
2022/08/02 08:09:11;;;;;;;1.50;1.40;;;;;;;20.89;79.33;101612.28;5024158;28;20051;-73
2022/08/02 08:11:37;;;;;;;2.90;1.83;;;;;;;21.07;78.64;101617.22;5024350;28;20434;-73
2022/08/02 08:14:03;;;;;;;3.47;1.70;;;;;;;21.20;77.07;101607.19;5024797;28;20076;-75
2022/08/02 08:16:29;;;;;;;2.58;1.90;;;;;;;21.33;77.27;101608.91;5038790;28;20035;-73
2022/08/02 08:18:55;;;;;;;4.05;1.83;;;;;;;21.43;76.57;101605.38;5022599;28;20466;-72
2022/08/02 08:21:21;;;;;;;3.05;1.35;;;;;;;21.57;77.64;101606.94;5021461;28;20443;-73
2022/08/02 08:23:46;;;;;;;2.20;1.40;;;;;;;21.84;77.78;101602.16;5007547;28;20362;-74
2022/08/02 08:26:12;;;;;;;2.80;1.65;;;;;;;22.00;77.07;101601.75;5025401;28;20037;-74
2022/08/02 08:28:37;;;;;;;3.05;1.90;;;;;;;22.13;75.34;101598.91;5006071;28;20395;-73
2022/08/02 08:31:03;;;;;;;2.97;1.63;;;;;;;22.24;76.22;101593.47;5025193;28;20037;-74
2022/08/02 08:33:29;;;;;;;2.90;1.90;;;;;;;22.29;75.33;101601.19;5023670;28;21493;-73
2022/08/02 08:35:54;;;;;;;2.40;1.70;;;;;;;22.38;75.42;101603.09;5022430;28;20067;-74
2022/08/02 08:38:20;;;;;;;2.50;1.90;;;;;;;22.54;75.64;101596.44;5026133;28;20480;-73
2022/08/02 08:40:48;;;;;;;2.17;1.60;;;;;;;22.68;74.90;101599.78;5024466;28;20033;-72
2022/08/02 08:43:14;;;;;;;2.50;1.50;;;;;;;22.95;75.75;101590.31;5008671;28;20086;-72
2022/08/02 08:45:44;;;;;;;1.70;1.60;;;;;;;23.08;74.24;101585.53;5006325;28;20029;-72
2022/08/02 08:48:17;;;;;;;5.60;1.75;;;;;;;23.18;73.92;101582.91;5024383;28;20479;-72
2022/08/02 08:50:53;;;;;;;2.35;1.95;;;;;;;23.10;72.24;101578.16;5025001;28;20044;-73
2022/08/02 08:53:19;;;;;;;2.63;1.80;;;;;;;23.14;73.71;101573.34;5018667;28;20033;-73
2022/08/02 08:55:44;;;;;;;2.42;1.60;;;;;;;23.26;73.69;101571.44;5011398;28;20029;-74
2022/08/02 08:58:10;;;;;;;2.67;2.20;;;;;;;23.28;71.74;101564.91;5028737;28;20026;-73
2022/08/02 09:00:36;;;;;;;4.43;2.10;;;;;;;23.29;72.13;101568.44;5024186;28;20732;-72
2022/08/02 09:03:07;;;;;;;18.35;3.72;;;;;;;23.29;71.54;101566.59;5026871;28;20225;-72
2022/08/02 09:05:40;;;;;;;2.80;2.15;;;;;;;23.33;70.42;101567.22;5025650;28;20032;-73
2022/08/02 09:08:06;;;;;;;3.00;2.00;;;;;;;23.38;73.14;101567.66;5025466;28;20133;-72
2022/08/02 09:10:43;;;;;;;39.00;7.07;;;;;;;23.37;68.93;101559.69;5025926;28;20049;-72
2022/08/02 09:13:35;;;;;;;4.03;2.20;;;;;;;23.22;68.58;101557.34;5025841;28;20089;-71
2022/08/02 09:16:02;;;;;;;15.90;4.13;;;;;;;23.18;72.30;101554.06;5014279;28;20148;-73
2022/08/02 09:18:33;;;;;;;5.40;2.40;;;;;;;23.31;73.30;101553.00;5027435;28;20999;-73
2022/08/02 09:21:04;;;;;;;3.47;2.63;;;;;;;23.46;72.23;101548.94;5026388;28;20087;-72
2022/08/02 09:23:41;;;;;;;7.68;2.70;;;;;;;23.58;70.89;101546.09;5017218;28;20232;-72
2022/08/02 09:26:09;;;;;;;3.33;2.40;;;;;;;23.77;72.76;101544.44;5027126;28;20399;-71
2022/08/02 09:28:37;;;;;;;47.03;8.43;;;;;;;23.91;73.06;101544.00;5027120;28;20032;-71
2022/08/02 09:31:05;;;;;;;61.72;10.15;;;;;;;24.02;72.64;101553.84;5026695;28;20064;-71
2022/08/02 09:33:31;;;;;;;6.38;2.70;;;;;;;24.14;73.37;101554.59;5026166;28;20076;-74
2022/08/02 09:36:03;;;;;;;6.47;2.80;;;;;;;24.32;72.85;101556.56;5024414;28;20033;-75
2022/08/02 09:38:29;;;;;;;3.42;2.00;;;;;;;24.43;73.01;101561.84;5026849;28;20663;-74
2022/08/02 09:40:55;;;;;;;4.40;2.38;;;;;;;24.45;72.70;101564.41;5021438;28;20032;-74
2022/08/02 09:43:21;;;;;;;4.10;3.15;;;;;;;24.51;72.01;101561.13;5041911;28;20041;-74
2022/08/02 09:45:46;;;;;;;4.43;2.63;;;;;;;24.52;72.31;101568.25;5026637;28;20060;-74
2022/08/02 09:48:12;;;;;;;6.53;2.92;;;;;;;24.54;71.82;101550.88;5024309;28;20037;-74
2022/08/02 09:50:39;;;;;;;4.72;3.00;;;;;;;24.58;71.97;101550.56;4997592;28;20104;-75
2022/08/02 09:53:11;;;;;;;8.38;3.25;;;;;;;24.63;71.73;101557.25;5025627;28;20033;-75
2022/08/02 09:55:37;;;;;;;3.53;2.83;;;;;;;24.65;72.03;101559.81;5013963;28;20086;-75
2022/08/02 09:58:19;;;;;;;4.57;3.30;;;;;;;24.58;70.60;101550.56;5026316;28;20033;-75
2022/08/02 10:00:56;;;;;;;12.63;4.45;;;;;;;24.50;71.07;101549.44;5025680;28;20455;-74
2022/08/02 10:03:21;;;;;;;6.03;2.90;;;;;;;24.41;71.89;101553.03;5025839;28;20067;-75
2022/08/02 10:05:47;;;;;;;5.72;3.13;;;;;;;24.42;72.02;101554.72;5025415;28;20139;-75
2022/08/02 10:08:13;;;;;;;4.65;3.42;;;;;;;24.41;72.48;101553.03;4993905;28;20036;-74
2022/08/02 10:10:40;;;;;;;10.20;4.20;;;;;;;24.49;72.56;101547.75;5028170;28;20036;-74
2022/08/02 10:13:05;;;;;;;55.47;9.73;;;;;;;24.61;72.32;101561.13;5028321;28;20140;-75
2022/08/02 10:15:31;;;;;;;7.22;4.05;;;;;;;24.70;72.21;101560.25;5025340;28;20059;-74
2022/08/02 10:17:57;;;;;;;7.88;5.22;;;;;;;24.78;72.18;101556.81;5022411;28;20124;-75
2022/08/02 10:20:23;;;;;;;7.95;6.22;;;;;;;24.86;72.20;101569.63;5013127;28;20042;-74
2022/08/02 10:22:49;;;;;;;7.97;5.57;;;;;;;24.87;72.72;101564.06;5023237;28;20340;-72
2022/08/02 10:25:15;;;;;;;8.45;6.53;;;;;;;24.87;72.56;101566.78;5021187;28;21703;-72
2022/08/02 10:27:42;;;;;;;8.77;6.35;;;;;;;24.86;72.16;101575.03;5023592;28;20040;-72
2022/08/02 10:30:08;;;;;;;8.70;5.65;;;;;;;24.73;72.71;101573.47;5024374;28;20037;-73
2022/08/02 10:32:45;;;;;;;8.52;6.75;;;;;;;24.69;72.03;101572.06;5009153;28;20095;-72
2022/08/02 10:35:11;;;;;;;9.50;5.90;;;;;;;24.62;73.31;101557.41;5012075;28;20037;-73
2022/08/02 10:37:38;;;;;;;8.63;6.00;;;;;;;24.61;73.97;101564.66;5025689;28;20044;-73
2022/08/02 10:40:05;;;;;;;7.57;5.68;;;;;;;24.63;73.85;101570.78;5012426;28;20037;-73
2022/08/02 10:42:47;;;;;;;8.50;6.10;;;;;;;24.67;73.94;101561.38;5038581;28;20040;-74
2022/08/02 10:45:15;;;;;;;10.48;5.97;;;;;;;24.74;74.25;101563.50;5023733;28;20033;-73
2022/08/02 10:48:04;;;;;;;9.13;5.38;;;;;;;24.74;73.79;101569.78;5020978;28;20080;-74
2022/08/02 10:50:51;;;;;;;9.05;6.03;;;;;;;24.62;73.36;101565.53;5023193;28;20040;-72
2022/08/02 10:53:30;;;;;;;7.13;5.18;;;;;;;24.54;73.04;101575.22;5025864;28;20482;-72
2022/08/02 10:55:58;;;;;;;10.95;6.75;;;;;;;24.48;74.93;101581.22;5022466;28;20040;-72
2022/08/02 10:58:31;;;;;;;11.93;6.57;;;;;;;24.34;74.65;101573.53;5025244;28;20047;-72
2022/08/02 11:00:58;;;;;;;8.77;5.63;;;;;;;24.21;75.43;101573.81;5024064;28;20064;-73
2022/08/02 11:03:26;;;;;;;8.55;5.70;;;;;;;24.12;75.83;101583.63;5024433;28;20392;-73
2022/08/02 11:06:02;;;;;;;8.25;5.95;;;;;;;24.12;76.09;101578.22;5025823;28;20025;-73
2022/08/02 11:08:28;;;;;;;7.45;5.50;;;;;;;24.16;76.50;101582.34;5023707;28;20163;-72
2022/08/02 11:11:07;;;;;;;9.40;6.60;;;;;;;24.14;75.61;101574.38;5040381;28;20164;-72
2022/08/02 11:13:58;;;;;;;8.23;5.47;;;;;;;24.09;75.77;101573.97;5023335;28;20082;-73
2022/08/02 11:16:55;;;;;;;33.40;8.98;;;;;;;24.10;75.44;101570.25;4993280;28;20083;-71
2022/08/02 11:19:22;;;;;;;10.00;5.95;;;;;;;24.19;76.70;101571.22;5022490;28;20041;-74
2022/08/02 11:22:04;;;;;;;6.88;4.88;;;;;;;24.29;76.19;101568.53;5023647;28;20672;-72
2022/08/02 11:24:37;;;;;;;8.57;5.83;;;;;;;24.37;76.22;101560.56;5023636;28;20040;-72
2022/08/02 11:27:07;;;;;;;8.23;5.90;;;;;;;24.43;76.32;101564.56;5024420;28;20828;-73
2022/08/02 11:29:41;;;;;;;12.90;6.03;;;;;;;24.50;75.95;101565.69;5024582;28;20076;-72
2022/08/02 11:32:08;;;;;;;9.13;5.95;;;;;;;24.46;76.01;101564.25;5025901;28;21773;-73
2022/08/02 11:34:33;;;;;;;8.95;5.63;;;;;;;24.44;75.83;101560.00;5022842;28;20033;-71